Terminal Aerodrome Forecast
Issued by NWS Jackson, KY

Home | Current Version | Previous Version | Text Only | Print | Product List | Glossary On
Versions: 1 2 3 4 5 6 7 8 9 10 11 12 13 14 15 16 17 18 19 20 21
000
FTUS43 KJKL 291221 AAA
TAFLOZ
TAF AMD
KLOZ 291221Z 2912/3012 00000KT 1/2SM RA FG VCTS BKN003 OVC015CB
     FM291300 VRB06KT P6SM OVC008
     FM291800 24006KT P6SM VCTS SCT020CB BKN035
     FM300300 00000KT 5SM BR SCT040 BKN150
     FM301000 00000KT 3SM BR BKN003=

USA.gov is the U.S. government's official web portal to all federal, state and local government web resources and services.